Time;durP1;ratioP1;P1;durP2;ratioP2;P2;SDS_P1;SDS_P2;PMS_P1;PMS_P2;Temp;Humidity;BMP_temperature;BMP_pressure;BME280_temperature;BME280_humidity;BME280_pressure;Samples;Min_cycle;Max_cycle;Signal;HPM_P1;HPM_P2
2023/07/12 00:00:59;;;;;;;7.00;4.10;;;19.60;64.40;;;;;;5031540;28;20990;-86
2023/07/12 00:03:27;;;;;;;7.00;4.20;;;19.70;66.40;;;;;;5031510;28;20481;-86
2023/07/12 00:05:55;;;;;;;7.20;4.43;;;19.70;69.50;;;;;;5032966;28;20560;-86
2023/07/12 00:08:26;;;;;;;5.83;3.20;;;19.70;67.40;;;;;;5033009;28;20453;-86
2023/07/12 00:10:58;;;;;;;5.23;2.87;;;19.80;63.90;;;;;;5032944;28;20477;-87
2023/07/12 00:13:26;;;;;;;8.17;2.90;;;19.80;61.60;;;;;;5034921;28;20919;-86
2023/07/12 00:15:55;;;;;;;5.90;2.87;;;19.70;63.10;;;;;;5036683;28;20452;-87
2023/07/12 00:18:26;;;;;;;5.03;2.60;;;19.70;62.90;;;;;;5036648;28;20543;-86
2023/07/12 00:20:55;;;;;;;6.80;2.90;;;19.70;61.80;;;;;;5036990;28;20543;-87
2023/07/12 00:23:22;;;;;;;5.77;2.83;;;19.70;63.20;;;;;;5034519;28;20535;-89
2023/07/12 00:25:50;;;;;;;5.23;2.83;;;19.70;62.20;;;;;;5035195;28;20472;-87
2023/07/12 00:28:29;;;;;;;5.67;3.43;;;19.80;65.70;;;;;;5036451;28;20452;-87
2023/07/12 00:30:57;;;;;;;6.37;3.50;;;19.80;70.00;;;;;;5036485;28;20448;-87
2023/07/12 00:33:25;;;;;;;5.80;3.27;;;19.90;67.80;;;;;;5036719;28;20480;-87
2023/07/12 00:35:52;;;;;;;8.67;3.20;;;20.00;68.60;;;;;;5011340;28;20450;-87
2023/07/12 00:38:23;;;;;;;5.00;2.83;;;20.00;70.10;;;;;;5029347;28;20539;-87
2023/07/12 00:41:06;;;;;;;11.13;3.30;;;20.00;66.30;;;;;;5036821;28;20453;-87
2023/07/12 00:43:41;;;;;;;7.40;2.70;;;20.10;66.20;;;;;;5035270;28;20534;-87
2023/07/12 00:46:16;;;;;;;7.57;3.17;;;20.10;66.80;;;;;;5036018;28;20571;-88
2023/07/12 00:48:47;;;;;;;8.13;3.90;;;20.10;70.20;;;;;;5035298;28;20449;-87
2023/07/12 00:51:33;;;;;;;11.90;4.47;;;20.00;70.10;;;;;;5035049;28;20484;-87
2023/07/12 00:54:11;;;;;;;7.90;6.30;;;19.90;74.10;;;;;;5023566;28;20468;-88
2023/07/12 00:56:38;;;;;;;17.03;15.90;;;19.70;77.90;;;;;;5034635;28;20445;-87
2023/07/12 00:59:10;;;;;;;20.33;18.63;;;19.60;85.70;;;;;;5035942;28;20531;-86
2023/07/12 01:01:46;;;;;;;39.40;36.67;;;19.50;91.50;;;;;;5034631;28;20898;-87
2023/07/12 01:04:19;;;;;;;351.30;340.33;;;19.00;99.90;;;;;;5034669;28;20530;-89
2023/07/12 01:06:46;;;;;;;474.30;459.67;;;18.40;99.90;;;;;;5034337;28;20524;-89
2023/07/12 01:09:19;;;;;;;689.50;658.30;;;18.10;99.90;;;;;;5033016;28;20484;-89
2023/07/12 01:11:47;;;;;;;766.00;724.20;;;18.00;99.90;;;;;;5028833;28;20457;-89
2023/07/12 01:14:18;;;;;;;835.37;783.27;;;17.90;99.90;;;;;;5033930;28;20472;-88
2023/07/12 01:16:58;;;;;;;806.87;756.87;;;17.90;99.90;;;;;;5034006;28;20444;-89
2023/07/12 01:19:25;;;;;;;857.87;804.83;;;17.80;99.90;;;;;;5033437;28;20476;-88
2023/07/12 01:21:55;;;;;;;854.93;801.03;;;17.80;99.90;;;;;;5034111;28;20514;-88
2023/07/12 01:24:26;;;;;;;858.43;803.30;;;17.80;99.90;;;;;;5032782;28;20468;-88
2023/07/12 01:26:56;;;;;;;877.43;820.10;;;17.80;99.90;;;;;;5032552;28;20499;-88
2023/07/12 01:29:24;;;;;;;923.13;862.13;;;17.70;99.90;;;;;;5033910;28;20458;-87
2023/07/12 01:31:51;;;;;;;954.13;889.13;;;17.70;99.90;;;;;;5069379;23;20494;-63
2023/07/12 01:34:22;;;;;;;959.90;893.57;;;17.80;99.90;;;;;;5060672;23;20443;-69
2023/07/12 01:36:49;;;;;;;945.27;880.47;;;17.80;99.90;;;;;;5029799;28;20496;-69
2023/07/12 01:39:17;;;;;;;951.97;885.33;;;17.80;99.90;;;;;;5031621;28;20484;-69
2023/07/12 01:41:44;;;;;;;957.27;889.37;;;18.00;99.90;;;;;;5032355;28;20456;-69
2023/07/12 01:44:11;;;;;;;956.23;887.47;;;18.00;99.90;;;;;;5032628;28;20449;-69
2023/07/12 01:46:37;;;;;;;933.10;866.50;;;18.00;99.90;;;;;;5030900;28;20480;-69
2023/07/12 01:49:04;;;;;;;934.00;867.93;;;18.00;99.90;;;;;;5031349;28;20456;-70
2023/07/12 01:51:31;;;;;;;926.97;860.03;;;18.00;99.90;;;;;;5032289;28;20456;-69
2023/07/12 01:53:58;;;;;;;923.37;856.43;;;18.10;99.90;;;;;;5031031;28;20456;-69
2023/07/12 01:56:26;;;;;;;935.03;867.33;;;18.10;99.90;;;;;;5032197;28;20811;-69
2023/07/12 01:58:53;;;;;;;911.97;845.23;;;18.10;99.90;;;;;;5031699;28;20468;-69
2023/07/12 02:01:20;;;;;;;902.97;838.93;;;18.10;99.90;;;;;;5031908;28;20459;-69
2023/07/12 02:03:47;;;;;;;881.10;819.70;;;18.10;99.90;;;;;;5032298;28;20449;-69
2023/07/12 02:06:14;;;;;;;892.47;831.33;;;18.00;99.90;;;;;;5032217;28;20755;-69
2023/07/12 02:08:40;;;;;;;882.80;823.50;;;18.00;99.90;;;;;;5031803;28;20503;-69
2023/07/12 02:11:07;;;;;;;909.20;847.80;;;18.00;99.90;;;;;;5031571;28;20456;-69
2023/07/12 02:13:37;;;;;;;895.10;833.93;;;18.10;99.90;;;;;;5031787;28;20463;-69
2023/07/12 02:16:04;;;;;;;900.27;838.17;;;18.10;99.90;;;;;;5030995;28;20819;-69
2023/07/12 02:18:31;;;;;;;894.30;833.10;;;18.10;99.90;;;;;;5031056;28;20455;-70
2023/07/12 02:20:58;;;;;;;895.60;834.60;;;18.20;99.90;;;;;;5031473;28;20448;-70
2023/07/12 02:23:25;;;;;;;909.57;847.43;;;18.20;99.90;;;;;;5029296;28;20471;-70
2023/07/12 02:25:51;;;;;;;903.17;841.37;;;18.20;99.90;;;;;;5031000;28;20563;-70
2023/07/12 02:28:18;;;;;;;918.73;856.03;;;18.10;99.90;;;;;;5030409;28;20932;-70
2023/07/12 02:30:46;;;;;;;912.70;850.13;;;18.20;99.90;;;;;;5031777;28;20824;-70
2023/07/12 02:33:13;;;;;;;941.07;875.00;;;18.10;99.90;;;;;;5031702;28;20452;-70
2023/07/12 02:35:41;;;;;;;952.07;886.83;;;18.20;99.90;;;;;;5029243;28;20453;-70
2023/07/12 02:38:09;;;;;;;932.13;869.17;;;18.20;99.90;;;;;;5031488;28;20947;-70
2023/07/12 02:40:36;;;;;;;902.60;842.40;;;18.20;99.90;;;;;;5031302;28;20460;-70
2023/07/12 02:43:03;;;;;;;836.20;783.77;;;18.10;99.90;;;;;;5030868;28;20970;-71
2023/07/12 02:45:30;;;;;;;825.27;773.33;;;18.00;99.90;;;;;;5031189;28;20475;-71
2023/07/12 02:47:58;;;;;;;816.33;763.30;;;18.00;99.90;;;;;;5030171;28;20453;-72
2023/07/12 02:50:25;;;;;;;825.37;769.50;;;17.90;99.90;;;;;;5030935;28;20453;-73
2023/07/12 02:52:55;;;;;;;822.00;766.50;;;17.90;99.90;;;;;;5031118;28;20457;-74
2023/07/12 02:55:22;;;;;;;804.77;757.43;;;17.80;99.90;;;;;;5030149;28;20808;-67
2023/07/12 02:57:49;;;;;;;815.87;766.30;;;17.70;99.90;;;;;;5031590;28;20453;-73
2023/07/12 03:00:18;;;;;;;783.77;743.17;;;17.80;99.90;;;;;;5030541;28;20823;-71
2023/07/12 03:02:45;;;;;;;807.63;766.57;;;17.60;99.90;;;;;;5031188;28;20448;-74
2023/07/12 03:05:13;;;;;;;304.77;295.47;;;17.50;99.90;;;;;;5029838;28;20507;-71
2023/07/12 03:07:40;;;;;;;196.03;189.93;;;16.90;99.90;;;;;;5030646;28;20944;-73
2023/07/12 03:10:08;;;;;;;83.67;80.37;;;16.80;99.90;;;;;;5030942;28;20464;-70
2023/07/12 03:12:35;;;;;;;152.03;146.57;;;16.80;99.90;;;;;;5031126;28;20453;-68
2023/07/12 03:15:02;;;;;;;94.37;90.53;;;16.60;99.90;;;;;;5030744;28;20456;-67
2023/07/12 03:17:29;;;;;;;231.27;224.13;;;16.40;99.90;;;;;;5028910;28;20449;-71
2023/07/12 03:19:55;;;;;;;296.33;286.87;;;16.60;99.90;;;;;;5031147;28;20540;-70
2023/07/12 03:22:24;;;;;;;229.23;221.83;;;16.40;99.90;;;;;;5030885;28;20449;-71
2023/07/12 03:24:50;;;;;;;200.93;194.63;;;16.40;99.90;;;;;;5030159;28;20455;-71
2023/07/12 03:27:17;;;;;;;490.83;473.43;;;16.40;99.90;;;;;;5030778;28;20484;-71
2023/07/12 03:29:44;;;;;;;494.03;476.33;;;16.50;99.90;;;;;;5030893;28;20465;-72
2023/07/12 03:32:11;;;;;;;538.93;519.07;;;16.50;99.90;;;;;;5030956;28;20452;-71
2023/07/12 03:34:38;;;;;;;564.03;542.77;;;16.50;99.90;;;;;;5030764;28;20547;-71
2023/07/12 03:37:05;;;;;;;544.93;524.67;;;16.40;99.90;;;;;;5030412;28;20527;-71
2023/07/12 03:39:33;;;;;;;544.13;524.03;;;16.50;99.90;;;;;;5030059;28;20456;-71
2023/07/12 03:42:00;;;;;;;521.50;502.50;;;16.40;99.90;;;;;;5029570;28;20486;-71
2023/07/12 03:44:27;;;;;;;436.87;422.23;;;16.40;99.90;;;;;;5029636;28;20448;-71
2023/07/12 03:46:53;;;;;;;557.13;535.80;;;16.30;99.90;;;;;;5030382;28;20778;-71
2023/07/12 03:49:20;;;;;;;440.87;426.00;;;16.40;99.90;;;;;;5033639;28;20518;-71
2023/07/12 03:51:47;;;;;;;478.63;461.83;;;16.40;99.90;;;;;;5034354;28;20453;-71
2023/07/12 03:54:14;;;;;;;537.00;517.20;;;16.50;99.90;;;;;;5034790;28;20488;-71
2023/07/12 03:56:43;;;;;;;563.30;541.73;;;16.40;99.90;;;;;;5034324;28;20452;-70
2023/07/12 03:59:09;;;;;;;636.17;610.37;;;16.40;99.90;;;;;;5034286;28;20459;-71
2023/07/12 04:01:36;;;;;;;587.27;564.10;;;16.40;99.90;;;;;;5033348;28;20455;-71
2023/07/12 04:04:04;;;;;;;630.43;603.87;;;16.40;99.90;;;;;;5033769;28;20829;-70
2023/07/12 04:06:31;;;;;;;716.53;684.57;;;16.40;99.90;;;;;;5034304;28;20476;-71
2023/07/12 04:08:58;;;;;;;754.23;718.73;;;16.40;99.90;;;;;;5034001;28;20802;-71
2023/07/12 04:11:27;;;;;;;747.43;712.23;;;16.40;99.90;;;;;;5033943;28;20456;-71
2023/07/12 04:13:56;;;;;;;831.43;787.73;;;16.30;99.90;;;;;;5034531;28;20471;-71
2023/07/12 04:16:25;;;;;;;794.83;755.03;;;16.40;99.90;;;;;;5034283;28;20441;-71
2023/07/12 04:18:52;;;;;;;767.80;731.03;;;16.30;99.90;;;;;;5033209;28;20452;-71
2023/07/12 04:21:19;;;;;;;780.37;741.53;;;16.30;99.90;;;;;;5033992;28;20567;-73
2023/07/12 04:23:48;;;;;;;653.40;624.77;;;16.40;99.90;;;;;;5034681;28;20452;-71
2023/07/12 04:26:17;;;;;;;560.90;538.53;;;16.20;99.90;;;;;;5033734;28;20983;-71
2023/07/12 04:28:48;;;;;;;497.00;477.73;;;16.20;99.90;;;;;;5033953;28;20448;-70
2023/07/12 04:31:19;;;;;;;465.17;446.77;;;16.20;99.90;;;;;;5033758;28;20452;-71
2023/07/12 04:33:46;;;;;;;507.43;486.53;;;16.20;99.90;;;;;;5034315;28;20456;-71
2023/07/12 04:36:16;;;;;;;446.63;429.20;;;16.30;99.90;;;;;;5033414;28;20459;-71
2023/07/12 04:38:42;;;;;;;547.07;524.07;;;16.20;99.90;;;;;;5033996;28;20488;-70
2023/07/12 04:41:09;;;;;;;506.13;485.47;;;16.30;99.90;;;;;;5034060;28;20463;-71
2023/07/12 04:43:36;;;;;;;620.00;592.63;;;16.30;99.90;;;;;;5033952;28;20460;-70
2023/07/12 04:46:04;;;;;;;541.43;518.77;;;16.40;99.90;;;;;;5030505;28;21119;-71
2023/07/12 04:48:33;;;;;;;551.73;528.80;;;16.40;99.90;;;;;;5031611;28;20448;-72
2023/07/12 04:51:00;;;;;;;657.53;627.33;;;16.60;99.90;;;;;;5033780;28;20935;-70
2023/07/12 04:53:27;;;;;;;597.57;571.20;;;16.60;99.90;;;;;;5028893;28;20566;-70
2023/07/12 04:55:55;;;;;;;599.30;573.40;;;16.70;99.90;;;;;;5034045;28;20457;-70
2023/07/12 04:58:22;;;;;;;530.77;508.87;;;16.80;99.90;;;;;;5030396;28;20457;-70
2023/07/12 05:00:49;;;;;;;481.43;463.03;;;16.80;99.90;;;;;;5033398;28;20463;-70
2023/07/12 05:03:16;;;;;;;436.60;420.13;;;16.80;99.90;;;;;;5031474;28;20452;-70
2023/07/12 05:05:45;;;;;;;312.20;301.23;;;17.00;99.90;;;;;;5033568;28;20453;-70
2023/07/12 05:08:12;;;;;;;336.00;324.30;;;17.00;99.90;;;;;;5033637;28;20448;-70
2023/07/12 05:10:39;;;;;;;255.50;247.07;;;17.10;99.90;;;;;;5033234;28;20448;-70
2023/07/12 05:13:06;;;;;;;194.83;188.33;;;17.20;99.90;;;;;;5033234;28;20471;-69
2023/07/12 05:15:33;;;;;;;304.10;294.27;;;17.20;99.90;;;;;;5033156;28;20888;-69
2023/07/12 05:18:00;;;;;;;261.50;253.00;;;17.30;99.90;;;;;;5033198;28;20970;-70
2023/07/12 05:20:27;;;;;;;137.20;132.63;;;17.40;99.90;;;;;;5033042;28;20498;-70
2023/07/12 05:22:56;;;;;;;132.33;127.93;;;17.50;99.90;;;;;;5033014;28;21038;-70
2023/07/12 05:25:22;;;;;;;88.67;85.37;;;17.60;99.90;;;;;;5032157;28;20444;-70
2023/07/12 05:27:50;;;;;;;31.13;29.73;;;17.70;99.90;;;;;;5031286;28;20477;-70
2023/07/12 05:30:17;;;;;;;48.13;46.00;;;17.80;99.90;;;;;;5031179;28;20826;-70
2023/07/12 05:32:44;;;;;;;23.47;22.37;;;17.70;99.90;;;;;;5032564;28;20487;-70
2023/07/12 05:35:11;;;;;;;12.60;11.90;;;17.70;99.90;;;;;;5032640;28;20464;-71
2023/07/12 05:37:38;;;;;;;27.07;25.57;;;17.70;99.90;;;;;;5032959;28;20479;-70
2023/07/12 05:40:09;;;;;;;48.07;46.07;;;17.70;99.90;;;;;;5032558;28;20461;-70
2023/07/12 05:42:40;;;;;;;19.10;18.10;;;17.70;99.90;;;;;;5032846;28;20453;-71
2023/07/12 05:45:07;;;;;;;39.13;37.33;;;17.70;99.90;;;;;;5031701;28;20535;-70
2023/07/12 05:47:34;;;;;;;46.50;44.57;;;17.70;99.90;;;;;;5032440;28;20480;-70
2023/07/12 05:50:01;;;;;;;44.63;42.77;;;17.60;99.90;;;;;;5032996;28;20453;-70
2023/07/12 05:52:28;;;;;;;82.03;79.10;;;17.70;99.90;;;;;;5030697;28;20958;-70
2023/07/12 05:54:55;;;;;;;31.53;30.23;;;17.60;99.90;;;;;;5031799;28;20902;-70
2023/07/12 05:57:23;;;;;;;15.87;14.47;;;17.60;99.90;;;;;;5031525;28;20471;-70
2023/07/12 05:59:51;;;;;;;29.00;27.60;;;17.70;99.90;;;;;;5031298;28;20940;-69
2023/07/12 06:02:18;;;;;;;51.87;48.87;;;17.70;99.90;;;;;;5040602;28;20484;-69
2023/07/12 06:04:45;;;;;;;30.07;28.53;;;17.90;99.90;;;;;;5031250;28;20457;-70
2023/07/12 06:07:12;;;;;;;7.60;6.20;;;18.40;99.90;;;;;;5030215;28;20468;-71
2023/07/12 06:09:38;;;;;;;7.20;3.83;;;18.50;99.90;;;;;;5030949;28;21031;-69
2023/07/12 06:12:06;;;;;;;7.43;3.50;;;18.60;99.90;;;;;;5031111;28;20449;-71
2023/07/12 06:14:34;;;;;;;6.00;4.37;;;18.70;99.90;;;;;;5030363;28;20457;-71
2023/07/12 06:17:01;;;;;;;4.90;2.73;;;18.90;99.90;;;;;;5030137;28;20531;-70
2023/07/12 06:19:28;;;;;;;4.93;2.67;;;19.00;99.90;;;;;;5028943;28;20455;-70
2023/07/12 06:21:55;;;;;;;5.47;2.67;;;19.00;99.90;;;;;;5030282;28;20453;-69
2023/07/12 06:24:22;;;;;;;6.70;2.30;;;19.10;99.90;;;;;;5031018;28;20514;-71
2023/07/12 06:26:49;;;;;;;9.77;2.00;;;19.20;99.90;;;;;;5030337;28;20473;-70
2023/07/12 06:29:17;;;;;;;7.07;1.73;;;19.40;99.90;;;;;;5030233;28;20452;-71
2023/07/12 06:31:45;;;;;;;4.80;1.60;;;19.40;99.90;;;;;;5031192;28;20953;-70
2023/07/12 06:34:13;;;;;;;6.20;1.83;;;19.60;99.90;;;;;;5029791;28;20455;-70
2023/07/12 06:36:40;;;;;;;6.33;1.70;;;19.70;99.90;;;;;;5029628;28;20463;-70
2023/07/12 06:39:07;;;;;;;5.70;1.77;;;19.40;99.90;;;;;;5030556;28;20718;-70
2023/07/12 06:41:34;;;;;;;9.27;2.00;;;19.70;99.90;;;;;;5030206;28;20449;-69
2023/07/12 06:44:01;;;;;;;6.23;1.60;;;20.00;99.90;;;;;;5030813;28;20808;-70
2023/07/12 06:46:27;;;;;;;5.27;1.30;;;20.40;99.90;;;;;;5026567;28;20453;-70
2023/07/12 06:48:56;;;;;;;5.67;2.03;;;20.40;98.70;;;;;;5029945;28;20449;-67
2023/07/12 06:51:23;;;;;;;6.83;1.60;;;20.40;95.80;;;;;;5029686;28;20532;-67
2023/07/12 06:53:50;;;;;;;9.53;1.90;;;20.50;95.30;;;;;;5030243;28;20453;-67
2023/07/12 06:56:17;;;;;;;5.63;1.60;;;20.60;95.30;;;;;;5029731;28;20448;-67
2023/07/12 06:58:44;;;;;;;5.67;1.50;;;20.80;95.40;;;;;;5030638;28;20453;-67
2023/07/12 07:01:11;;;;;;;5.63;1.63;;;20.90;92.00;;;;;;5031073;28;21101;-67
2023/07/12 07:03:38;;;;;;;6.73;1.70;;;21.20;92.00;;;;;;5031341;28;20932;-67
2023/07/12 07:06:07;;;;;;;10.13;2.50;;;21.30;89.30;;;;;;5030755;28;20448;-67
2023/07/12 07:08:33;;;;;;;8.13;1.90;;;21.40;89.70;;;;;;5046112;28;20479;-67
2023/07/12 07:11:02;;;;;;;9.60;2.17;;;21.30;87.30;;;;;;5029813;28;20453;-67
2023/07/12 07:13:29;;;;;;;11.83;2.10;;;20.70;86.70;;;;;;5030287;28;20453;-67
2023/07/12 07:15:57;;;;;;;5.80;2.17;;;20.40;91.50;;;;;;5027196;28;20511;-67
2023/07/12 07:18:24;;;;;;;10.23;2.50;;;20.00;89.00;;;;;;5030039;28;20444;-67
2023/07/12 07:20:52;;;;;;;6.83;1.70;;;20.00;91.70;;;;;;5028960;28;20453;-68
2023/07/12 07:23:20;;;;;;;7.37;1.90;;;20.30;91.40;;;;;;5029615;28;20448;-67
2023/07/12 07:25:47;;;;;;;8.20;2.33;;;20.80;86.70;;;;;;5029602;28;20449;-67
2023/07/12 07:28:15;;;;;;;9.73;2.50;;;21.30;83.30;;;;;;5028784;28;20552;-68
2023/07/12 07:30:42;;;;;;;10.03;2.60;;;21.60;79.70;;;;;;5030364;28;20444;-68
2023/07/12 07:33:09;;;;;;;42.20;18.40;;;21.50;75.20;;;;;;5093819;23;20498;-65
2023/07/12 07:35:36;;;;;;;32.43;18.67;;;21.30;71.30;;;;;;5073488;28;20443;-66
2023/07/12 07:38:03;;;;;;;15.67;7.00;;;21.30;71.30;;;;;;5073115;28;20797;-65
2023/07/12 07:40:41;;;;;;;9.23;3.63;;;21.20;68.60;;;;;;5189257;22;20483;-67
2023/07/12 07:43:09;;;;;;;14.40;5.60;;;21.40;71.40;;;;;;5048229;28;20456;-66
2023/07/12 07:45:36;;;;;;;18.33;5.80;;;21.60;71.60;;;;;;5048396;28;20455;-65
2023/07/12 07:48:03;;;;;;;8.97;3.50;;;21.80;63.50;;;;;;5050213;28;20475;-65
2023/07/12 07:50:30;;;;;;;17.50;8.43;;;21.60;63.30;;;;;;5048145;28;20455;-70
2023/07/12 07:52:56;;;;;;;9.47;3.10;;;21.70;63.40;;;;;;5050458;28;20449;-71
2023/07/12 07:55:23;;;;;;;15.20;8.00;;;21.80;64.30;;;;;;5050741;28;20452;-70
2023/07/12 07:57:52;;;;;;;20.13;8.70;;;21.90;63.60;;;;;;5050924;28;20476;-70
2023/07/12 08:00:19;;;;;;;10.73;5.00;;;22.10;61.30;;;;;;5050461;28;20458;-70
2023/07/12 08:02:46;;;;;;;10.63;3.77;;;22.50;62.20;;;;;;5050838;28;20451;-71
2023/07/12 08:05:17;;;;;;;9.40;2.47;;;22.50;55.60;;;;;;5050733;28;20547;-70
2023/07/12 08:07:47;;;;;;;8.70;3.47;;;22.30;55.40;;;;;;5050387;28;20529;-70
2023/07/12 08:10:17;;;;;;;9.27;2.90;;;22.20;55.30;;;;;;5050383;28;20545;-70
2023/07/12 08:12:44;;;;;;;10.77;2.43;;;22.30;55.40;;;;;;5050728;28;20518;-70
2023/07/12 08:15:15;;;;;;;10.00;3.57;;;22.00;55.10;;;;;;5070413;28;20458;-70
2023/07/12 08:17:43;;;;;;;7.83;2.33;;;21.70;59.10;;;;;;5070503;28;20447;-69
2023/07/12 08:20:10;;;;;;;5.77;1.63;;;21.50;59.20;;;;;;5070640;28;20864;-70
2023/07/12 08:22:38;;;;;;;7.13;2.37;;;21.30;55.50;;;;;;5070565;28;20455;-70
2023/07/12 08:25:05;;;;;;;6.70;2.63;;;21.50;54.60;;;;;;5070434;28;20499;-69
2023/07/12 08:27:32;;;;;;;7.80;2.40;;;21.70;54.80;;;;;;5070245;28;20514;-70
2023/07/12 08:29:59;;;;;;;10.20;2.80;;;21.60;54.70;;;;;;5070654;28;20487;-70
2023/07/12 08:32:29;;;;;;;8.53;2.37;;;21.50;54.60;;;;;;5070497;28;20457;-70
2023/07/12 08:34:57;;;;;;;5.17;1.53;;;21.60;51.40;;;;;;5072959;28;20537;-70
2023/07/12 08:37:27;;;;;;;7.03;2.43;;;21.90;46.10;;;;;;5073719;28;20451;-70
2023/07/12 08:39:54;;;;;;;10.07;2.10;;;22.30;48.00;;;;;;5073731;28;20879;-70
2023/07/12 08:42:29;;;;;;;8.10;2.00;;;22.80;47.00;;;;;;5073718;28;20461;-71
2023/07/12 08:44:59;;;;;;;7.37;2.00;;;22.90;47.10;;;;;;5074069;28;20453;-70
2023/07/12 08:47:32;;;;;;;5.73;1.60;;;22.80;46.00;;;;;;5073526;28;20474;-71
2023/07/12 08:49:59;;;;;;;8.90;2.30;;;22.90;38.10;;;;;;5073854;28;20477;-70
2023/07/12 08:52:33;;;;;;;8.17;2.00;;;22.60;42.40;;;;;;5073644;28;21007;-69
2023/07/12 08:55:02;;;;;;;7.17;1.83;;;23.10;46.40;;;;;;5074218;28;20449;-71
2023/07/12 08:57:31;;;;;;;7.70;2.10;;;23.10;47.30;;;;;;5073738;28;20846;-70
2023/07/12 09:00:05;;;;;;;8.40;1.80;;;23.70;39.80;;;;;;5074199;28;20455;-71
2023/07/12 09:02:35;;;;;;;5.07;1.37;;;23.80;38.90;;;;;;5073551;28;20959;-70
2023/07/12 09:05:12;;;;;;;15.63;2.00;;;24.20;39.30;;;;;;5073678;28;20455;-71
2023/07/12 09:07:42;;;;;;;7.50;1.80;;;24.00;39.00;;;;;;5073258;28;20474;-70
2023/07/12 09:10:10;;;;;;;9.00;1.80;;;23.70;38.70;;;;;;5073609;28;20458;-70
2023/07/12 09:12:37;;;;;;;8.20;1.90;;;23.30;38.40;;;;;;5073410;28;20455;-71
2023/07/12 09:15:07;;;;;;;6.57;1.73;;;22.60;37.80;;;;;;5073253;28;20809;-70
2023/07/12 09:17:42;;;;;;;8.33;1.67;;;22.20;37.40;;;;;;5072800;28;20555;-70
2023/07/12 09:20:24;;;;;;;8.90;1.87;;;22.00;43.50;;;;;;5073895;28;20513;-70
2023/07/12 09:22:51;;;;;;;6.43;1.93;;;21.90;40.20;;;;;;5073290;28;20508;-70
2023/07/12 09:25:23;;;;;;;9.40;2.03;;;22.00;39.50;;;;;;5073128;28;20478;-70
2023/07/12 09:27:50;;;;;;;5.80;1.50;;;22.90;47.00;;;;;;5072871;28;20489;-71
2023/07/12 09:30:21;;;;;;;6.40;1.20;;;23.60;38.70;;;;;;5072900;28;20463;-70
2023/07/12 09:32:50;;;;;;;14.53;2.47;;;23.10;34.60;;;;;;5073234;28;20508;-71
2023/07/12 09:35:26;;;;;;;7.90;1.90;;;22.90;38.00;;;;;;5073017;28;20504;-71
2023/07/12 09:37:58;;;;;;;7.60;1.50;;;23.30;38.40;;;;;;5072953;28;20458;-70
2023/07/12 09:40:25;;;;;;;5.70;2.10;;;24.60;30.30;;;;;;5072690;28;20726;-70
2023/07/12 09:42:57;;;;;;;7.10;1.50;;;24.90;30.60;;;;;;5072684;28;20463;-69
2023/07/12 09:45:29;;;;;;;7.13;1.27;;;25.60;23.60;;;;;;5072384;28;20447;-70
2023/07/12 09:48:06;;;;;;;4.93;1.40;;;26.20;23.00;;;;;;5072823;28;20919;-70
2023/07/12 09:50:40;;;;;;;7.77;2.10;;;26.30;16.50;;;;;;5072465;28;20450;-71
2023/07/12 09:53:16;;;;;;;8.90;2.70;;;25.30;19.70;;;;;;5072706;28;20889;-70
2023/07/12 09:55:51;;;;;;;7.83;1.53;;;24.70;23.10;;;;;;5072477;28;20542;-69
2023/07/12 09:58:25;;;;;;;10.40;2.40;;;23.70;25.50;;;;;;5072529;28;20460;-70
2023/07/12 10:00:58;;;;;;;8.13;1.53;;;23.30;26.20;;;;;;5072196;28;20491;-69
2023/07/12 10:03:30;;;;;;;10.43;1.77;;;23.50;29.50;;;;;;5072767;28;20455;-69
2023/07/12 10:06:03;;;;;;;4.90;1.17;;;23.90;29.80;;;;;;5072354;28;20462;-69
2023/07/12 10:08:41;;;;;;;8.27;1.60;;;24.40;22.90;;;;;;5072353;28;20841;-71
2023/07/12 10:11:13;;;;;;;6.33;1.63;;;23.50;29.50;;;;;;5072126;28;20811;-69
2023/07/12 10:13:42;;;;;;;9.30;2.13;;;23.20;29.30;;;;;;5072047;28;20442;-69
2023/07/12 10:16:15;;;;;;;16.63;2.07;;;22.90;29.10;;;;;;5071953;28;20476;-69
2023/07/12 10:18:45;;;;;;;8.13;1.73;;;23.10;29.30;;;;;;5072499;28;20799;-69
2023/07/12 10:21:19;;;;;;;9.37;1.70;;;23.90;29.80;;;;;;5071879;28;20436;-70
2023/07/12 10:23:50;;;;;;;9.43;2.90;;;24.60;24.70;;;;;;5071846;28;20451;-70
2023/07/12 10:26:17;;;;;;;10.03;2.37;;;23.90;25.70;;;;;;5071592;28;20968;-69
2023/07/12 10:28:51;;;;;;;8.47;1.37;;;23.50;29.30;;;;;;5071660;28;20482;-69
2023/07/12 10:31:28;;;;;;;6.73;1.67;;;23.80;26.90;;;;;;5071873;28;20458;-69
2023/07/12 10:34:09;;;;;;;8.20;1.50;;;24.50;26.80;;;;;;5071650;28;20940;-70
2023/07/12 10:36:38;;;;;;;5.37;1.47;;;24.50;22.90;;;;;;5071331;28;20485;-69
2023/07/12 10:39:07;;;;;;;7.50;1.50;;;24.90;23.90;;;;;;5071864;28;20447;-69
2023/07/12 10:41:39;;;;;;;6.43;1.40;;;25.50;17.70;;;;;;5071359;28;20942;-70
2023/07/12 10:44:12;;;;;;;4.57;1.07;;;25.10;15.80;;;;;;5071661;28;20454;-69
2023/07/12 10:46:43;;;;;;;6.73;1.40;;;24.30;15.60;;;;;;5071330;28;20451;-69
2023/07/12 10:49:15;;;;;;;6.87;1.30;;;23.90;19.40;;;;;;5071373;28;20502;-69
2023/07/12 10:51:46;;;;;;;8.17;1.93;;;24.60;23.00;;;;;;5071534;28;20473;-69
2023/07/12 10:55:03;;;;;;;10.33;2.10;;;24.30;16.50;;;;;;5071605;28;20450;-69
2023/07/12 10:57:44;;;;;;;6.40;1.00;;;23.90;22.50;;;;;;5070543;28;20455;-69
2023/07/12 11:00:29;;;;;;;5.13;1.10;;;25.00;15.80;;;;;;5071497;28;20550;-70
2023/07/12 11:03:03;;;;;;;8.23;2.03;;;25.00;11.70;;;;;;5071617;28;20796;-69
2023/07/12 11:05:45;;;;;;;5.10;1.13;;;25.50;16.10;;;;;;5071044;28;20838;-71
2023/07/12 11:08:53;;;;;;;7.03;1.77;;;26.30;8.80;;;;;;5071352;28;20478;-69
2023/07/12 11:11:35;;;;;;;6.00;1.30;;;27.20;9.30;;;;;;4970290;28;21002;-70
2023/07/12 11:14:26;;;;;;;8.37;1.87;;;27.70;5.90;;;;;;5065825;28;20462;-71
2023/07/12 11:17:21;;;;;;;5.67;1.30;;;26.90;2.50;;;;;;5071064;28;20443;-70
2023/07/12 11:20:03;;;;;;;5.40;1.30;;;25.60;8.50;;;;;;5070956;28;20447;-69
2023/07/12 11:22:53;;;;;;;8.03;1.50;;;25.60;8.40;;;;;;5071200;28;20945;-69
2023/07/12 11:25:40;;;;;;;6.33;1.73;;;26.40;8.90;;;;;;5071499;28;20548;-70
2023/07/12 11:28:29;;;;;;;5.47;1.57;;;26.70;5.20;;;;;;5064733;28;20816;-69
2023/07/12 11:31:16;;;;;;;6.30;1.63;;;26.40;2.30;;;;;;5047041;28;20896;-64
2023/07/12 11:33:47;;;;;;;5.57;1.50;;;25.40;8.30;;;;;;5049028;28;20452;-65
2023/07/12 11:36:19;;;;;;;7.37;1.53;;;24.80;8.00;;;;;;5049690;28;20455;-65
2023/07/12 11:38:49;;;;;;;5.23;1.20;;;25.70;8.50;;;;;;5046449;28;20440;-65
2023/07/12 11:41:18;;;;;;;9.77;1.63;;;24.80;8.00;;;;;;5025907;28;20975;-65
2023/07/12 11:43:46;;;;;;;11.93;2.07;;;26.00;8.60;;;;;;5048593;28;20551;-66
2023/07/12 11:46:18;;;;;;;6.57;1.40;;;27.10;5.40;;;;;;5048186;28;21168;-65
2023/07/12 11:48:50;;;;;;;5.70;1.40;;;27.60;1.70;;;;;;5047372;28;20549;-65
2023/07/12 11:51:27;;;;;;;5.07;1.20;;;27.20;1.50;;;;;;5048230;28;20504;-65
2023/07/12 11:53:59;;;;;;;5.90;1.30;;;28.00;1.00;;;;;;5046997;28;20429;-64
2023/07/12 11:56:26;;;;;;;7.87;1.20;;;27.90;1.00;;;;;;5049945;28;20455;-63
2023/07/12 11:58:54;;;;;;;6.30;1.20;;;28.60;1.00;;;;;;5049872;28;20455;-64
2023/07/12 12:01:22;;;;;;;6.60;1.27;;;28.90;1.00;;;;;;5070106;28;20453;-64
2023/07/12 12:03:50;;;;;;;10.07;1.73;;;28.50;1.00;;;;;;5070812;28;20450;-63
2023/07/12 12:06:20;;;;;;;6.23;1.70;;;28.70;1.00;;;;;;5070580;28;20806;-63
2023/07/12 12:08:54;;;;;;;7.07;1.40;;;27.70;1.00;;;;;;5072938;28;20474;-63
2023/07/12 12:11:22;;;;;;;6.00;1.33;;;28.60;1.00;;;;;;5074887;28;20545;-64
2023/07/12 12:13:52;;;;;;;12.63;1.73;;;29.50;1.00;;;;;;5074505;28;20541;-63
2023/07/12 12:16:22;;;;;;;11.87;1.50;;;29.20;1.00;;;;;;5074000;28;20454;-64
2023/07/12 12:18:54;;;;;;;6.20;1.50;;;28.70;1.00;;;;;;5074227;28;20454;-63
2023/07/12 12:21:24;;;;;;;15.10;1.93;;;29.40;1.00;;;;;;5074280;28;20425;-63
2023/07/12 12:23:53;;;;;;;14.13;1.70;;;29.50;1.00;;;;;;5074187;28;20450;-63
2023/07/12 12:26:24;;;;;;;8.87;1.57;;;28.30;1.00;;;;;;5073935;28;20457;-63
2023/07/12 12:28:56;;;;;;;6.77;1.53;;;26.90;1.00;;;;;;5073981;28;20476;-63
2023/07/12 12:31:24;;;;;;;7.80;2.20;;;26.00;1.00;;;;;;5073997;28;20612;-63
2023/07/12 12:34:03;;;;;;;6.87;1.80;;;25.90;1.00;;;;;;5074096;28;20451;-63
2023/07/12 12:36:33;;;;;;;9.23;1.50;;;25.30;1.00;;;;;;5073988;28;20494;-63
2023/07/12 12:39:05;;;;;;;5.00;1.30;;;26.10;1.00;;;;;;5074026;28;20455;-63
2023/07/12 12:41:39;;;;;;;7.20;1.50;;;27.20;1.00;;;;;;5073788;28;20462;-63
2023/07/12 12:44:09;;;;;;;5.70;1.40;;;29.20;1.00;;;;;;5073987;28;20977;-63
2023/07/12 12:46:36;;;;;;;6.90;1.60;;;29.90;1.00;;;;;;5073572;28;20911;-63